Sponsor Message:
Civil Aviation Forum
My Starred Topics | Profile | New Topic | Forum Index | Help | Search 
Smoke Affecting BUR Today (10/13)?  
User currently offlineArcrftLvr From United States of America, joined Nov 2006, 826 posts, RR: 0
Posted (5 years 10 months 3 weeks 2 days 22 hours ago) and read 1184 times:

With the brush fire burning in Lakeview Terrace and the amount of smoke that is hovering over the valley, are BUR's arrivals & departures being affected? I drove through the area this morning and the smoke is pretty thick so I would think if the airport isn't affected now, it may be soon....

2 replies: All unread, jump to last
 
User currently offlineOPNLguy From , joined Dec 1969, posts, RR:
Reply 1, posted (5 years 10 months 3 weeks 2 days 22 hours ago) and read 1166 times:

It hasn't been an issue in the last 12 hours, and the lowest the viz is forecasted to be today is 6 miles--no big deal....

KBUR 131453Z 04014G23KT 10SM CLR 18/M12 A3021 RMK AO2 SLP220 T01781122 53022
KBUR 131401Z 35009G20KT 10SM CLR 17/M12 A3018 RMK AO2
KBUR 131353Z AUTO VRB03G15KT 10SM CLR 17/M12 A3018 RMK AO2 SLP209 T01721122
KBUR 131253Z AUTO 03005KT 10SM CLR 17/M12 A3017 RMK AO2 PK WND 08026/1208 SLP207 T01721122
KBUR 131153Z AUTO 05012G24KT 020V080 10SM CLR 18/M12 A3015 RMK AO2 SLP197 T01781122 10189 20150 51004
KBUR 131053Z 01008KT 10SM CLR 17/M12 A3014 RMK AO2 SLP195 T01721122
KBUR 130953Z 02007KT 340V060 10SM CLR 18/M12 A3015 RMK AO2 SLP198 T01781122
KBUR 130853Z 04012G22KT 10SM CLR 18/M12 A3013 RMK AO2 SLP193 T01831122 51011
KBUR 130753Z 06012G22KT 10SM CLR 19/M13 A3012 RMK AO2 PK WND 04026/0738 SLP188 T01891128 402220111
KBUR 130653Z 02012KT 10SM CLR 18/M13 A3012 RMK AO2 SLP189 T01831128
KBUR 130553Z 00000KT 10SM CLR 17/M12 A3010 RMK AO2 SLP183 T01671117 10206 20167 51014
KBUR 130453Z VRB05KT 10SM CLR 17/M13 A3009 RMK AO2 SLP178 T01721133
KBUR 130353Z 29003KT 10SM CLR 18/M14 A3008 RMK AO2 SLP175 T01781144

KBUR 131408Z 131412 35009G20KT P6SM SKC
FM1600 04015G25KT 6SM FU SKC
FM2300 03020KT P6SM SKC
FM0500 06008KT P6SM SKC
FM0900 06012G20KT P6SM SKC


User currently offlineLAXintl From United States of America, joined May 2000, 25183 posts, RR: 48
Reply 2, posted (5 years 10 months 3 weeks 2 days 21 hours ago) and read 1141 times:

No but the wind has been an issue when airport has gone back and forth to runway 33 which reduces take off performance.

Jetblue has had to stop in LAS 4-5 times on the way to JFK this weekend.



From the desert to the sea, to all of Southern California
Top Of Page
Forum Index

This topic is archived and can not be replied to any more.

Printer friendly format

Similar topics:More similar topics...
Frontier On NBC Today Show 3/13 posted Wed Mar 12 2008 16:56:19 by KingCavalier
MCO A380 Meet 10/13? posted Sun Oct 28 2007 21:07:26 by Swatpamike
Travel Outlet Mexico City, May 10 - 13 posted Sat May 12 2007 08:30:32 by MX77W
Air Berlin Expects Yearly Growth Of 10-13 Percent posted Wed Dec 13 2006 09:51:44 by PlaneHunter
Fun Wx In LAS 10/13/06 posted Sat Oct 14 2006 04:56:14 by Jeb94
Randy's Blog, 2006/10/13: Goldcare posted Fri Oct 13 2006 17:51:06 by N328KF
Antonov At CLT Today! 10/10/06 posted Tue Oct 10 2006 22:35:03 by AT777
Saudi 747SP At SEA Today (7-10) posted Mon Jul 10 2006 22:57:30 by Mason
Did Heavy Winds Cause Havoc At BUR Today? posted Thu Mar 9 2006 06:02:40 by Ikramerica
FCA 757 At CDG Today (10/2) posted Fri Feb 10 2006 17:33:36 by Speedmarque